This is the latest recevied weather packets stored in our database for station/object OK0BPL-5. If no packets are shown the sender has not sent any weather packets the latest 10 day(s).
| Time | Temp. | Humidity | Pressure | Rain* | Wind** | Luminosity | Snow |
|---|---|---|---|---|---|---|---|
| 1787852133 | 27.22° C | 45% | 1038.2 hPa | 0 mm | - | 5 W/m² | - |
| 1787852133 | 27.22° C | 45% | 1038.2 hPa | 0 mm | - | 5 W/m² | - |
| 1787851233 | 27.78° C | 42% | 1037.9 hPa | 0 mm | - | 8 W/m² | - |
| 1787850333 | 28.89° C | 39% | 1037.7 hPa | 0 mm | - | 13 W/m² | - |
| 1787849433 | 30° C | 37% | 1037.4 hPa | 0 mm | - | 27 W/m² | - |
| 1787849433 | 30° C | 37% | 1037.4 hPa | 0 mm | - | 27 W/m² | - |
| 1787848533 | 31.11° C | 35% | 1037.4 hPa | 0 mm | - | 36 W/m² | - |
| 1787847633 | 30.56° C | 35% | 1037.4 hPa | 0 mm | - | 35 W/m² | - |
| 1787846733 | 30.56° C | 35% | 1037.6 hPa | 0 mm | - | 48 W/m² | - |
| 1787846733 | 30.56° C | 35% | 1037.6 hPa | 0 mm | - | 48 W/m² | - |
| 1787845833 | 30° C | 36% | 1037.9 hPa | 0 mm | - | 43 W/m² | - |
| 1787845833 | 30° C | 36% | 1037.9 hPa | 0 mm | - | 43 W/m² | - |
| 1787844933 | 29.44° C | 36% | 1038.1 hPa | 0 mm | - | 30 W/m² | - |
| 1787844933 | 29.44° C | 36% | 1038.1 hPa | 0 mm | - | 30 W/m² | - |
| 1787844033 | 30° C | 35% | 1038.1 hPa | 0 mm | - | 51 W/m² | - |
| 1787844033 | 30° C | 35% | 1038.1 hPa | 0 mm | - | 51 W/m² | - |
| 1787843133 | 30° C | 35% | 1038 hPa | 0 mm | - | 77 W/m² | - |
| 1787843133 | 30° C | 35% | 1038 hPa | 0 mm | - | 77 W/m² | - |
| 1787842233 | 30.56° C | 35% | 1037.7 hPa | 0 mm | - | 76 W/m² | - |
| 1787842233 | 30.56° C | 35% | 1037.7 hPa | 0 mm | - | 76 W/m² | - |
| 1787841333 | 31.67° C | 33% | 1037.5 hPa | 0 mm | - | 94 W/m² | - |
| 1787841333 | 31.67° C | 33% | 1037.5 hPa | 0 mm | - | 94 W/m² | - |
| 1787840433 | 32.22° C | 32% | 1037.2 hPa | 0 mm | - | 134 W/m² | - |
| 1787840433 | 32.22° C | 32% | 1037.2 hPa | 0 mm | - | 134 W/m² | - |
| 1787839533 | 32.78° C | 32% | 1037.1 hPa | 0 mm | - | 131 W/m² | - |
* Rain latest hour (hover to see other rain measurements)
** Current wind speed in m/s (hover to see current wind gust speed)